sensor_id;sensor_type;location;lat;lon;timestamp;P1;durP1;ratioP1;P2;durP2;ratioP2
31128;SDS011;17777;48.770;8.944;2024-03-02T00:00:21;3.90;;;3.15;;
31128;SDS011;17777;48.770;8.944;2024-03-02T00:02:49;3.95;;;2.75;;
31128;SDS011;17777;48.770;8.944;2024-03-02T00:05:17;4.25;;;3.10;;
31128;SDS011;17777;48.770;8.944;2024-03-02T00:07:57;4.20;;;2.92;;
31128;SDS011;17777;48.770;8.944;2024-03-02T00:10:27;3.50;;;2.90;;
31128;SDS011;17777;48.770;8.944;2024-03-02T00:13:06;3.72;;;2.92;;
31128;SDS011;17777;48.770;8.944;2024-03-02T00:18:40;4.10;;;3.17;;
31128;SDS011;17777;48.770;8.944;2024-03-02T00:21:05;3.65;;;3.25;;
31128;SDS011;17777;48.770;8.944;2024-03-02T00:23:35;4.80;;;3.50;;
31128;SDS011;17777;48.770;8.944;2024-03-02T00:26:02;4.45;;;3.20;;
31128;SDS011;17777;48.770;8.944;2024-03-02T00:28:32;4.25;;;2.97;;
31128;SDS011;17777;48.770;8.944;2024-03-02T00:31:06;4.40;;;3.45;;
31128;SDS011;17777;48.770;8.944;2024-03-02T00:36:24;4.57;;;3.75;;
31128;SDS011;17777;48.770;8.944;2024-03-02T00:38:52;4.93;;;3.28;;
31128;SDS011;17777;48.770;8.944;2024-03-02T00:43:58;7.30;;;3.78;;
31128;SDS011;17777;48.770;8.944;2024-03-02T00:46:24;5.15;;;3.88;;
31128;SDS011;17777;48.770;8.944;2024-03-02T00:51:22;6.95;;;3.50;;
31128;SDS011;17777;48.770;8.944;2024-03-02T00:53:51;4.47;;;3.65;;
31128;SDS011;17777;48.770;8.944;2024-03-02T00:56:23;5.40;;;3.45;;
31128;SDS011;17777;48.770;8.944;2024-03-02T00:58:50;4.85;;;3.95;;
31128;SDS011;17777;48.770;8.944;2024-03-02T01:01:16;5.50;;;4.40;;
31128;SDS011;17777;48.770;8.944;2024-03-02T01:03:43;6.25;;;4.20;;
31128;SDS011;17777;48.770;8.944;2024-03-02T01:06:09;6.55;;;4.35;;
31128;SDS011;17777;48.770;8.944;2024-03-02T01:08:35;5.47;;;4.32;;
31128;SDS011;17777;48.770;8.944;2024-03-02T01:11:02;6.00;;;4.47;;
31128;SDS011;17777;48.770;8.944;2024-03-02T01:13:28;6.20;;;4.60;;
31128;SDS011;17777;48.770;8.944;2024-03-02T01:15:54;6.70;;;4.85;;
31128;SDS011;17777;48.770;8.944;2024-03-02T01:18:20;5.95;;;4.75;;
31128;SDS011;17777;48.770;8.944;2024-03-02T01:20:47;6.93;;;4.93;;
31128;SDS011;17777;48.770;8.944;2024-03-02T01:23:16;5.80;;;4.90;;
31128;SDS011;17777;48.770;8.944;2024-03-02T01:25:44;7.45;;;5.72;;
31128;SDS011;17777;48.770;8.944;2024-03-02T01:28:12;6.25;;;5.25;;
31128;SDS011;17777;48.770;8.944;2024-03-02T01:30:38;8.15;;;5.35;;
31128;SDS011;17777;48.770;8.944;2024-03-02T01:33:04;6.75;;;5.53;;
31128;SDS011;17777;48.770;8.944;2024-03-02T01:35:33;5.78;;;5.00;;
31128;SDS011;17777;48.770;8.944;2024-03-02T01:38:03;9.45;;;7.28;;
31128;SDS011;17777;48.770;8.944;2024-03-02T01:40:31;8.07;;;5.88;;
31128;SDS011;17777;48.770;8.944;2024-03-02T01:43:01;7.32;;;5.32;;
31128;SDS011;17777;48.770;8.944;2024-03-02T01:45:29;5.22;;;4.30;;
31128;SDS011;17777;48.770;8.944;2024-03-02T01:47:55;7.53;;;5.15;;
31128;SDS011;17777;48.770;8.944;2024-03-02T01:50:27;12.30;;;4.88;;
31128;SDS011;17777;48.770;8.944;2024-03-02T01:52:56;6.90;;;4.85;;
31128;SDS011;17777;48.770;8.944;2024-03-02T01:55:22;7.03;;;5.28;;
31128;SDS011;17777;48.770;8.944;2024-03-02T01:57:49;5.32;;;4.43;;
31128;SDS011;17777;48.770;8.944;2024-03-02T02:00:16;6.18;;;4.43;;
31128;SDS011;17777;48.770;8.944;2024-03-02T02:02:43;6.70;;;4.75;;
31128;SDS011;17777;48.770;8.944;2024-03-02T02:05:10;5.53;;;4.65;;
31128;SDS011;17777;48.770;8.944;2024-03-02T02:07:36;8.50;;;5.10;;
31128;SDS011;17777;48.770;8.944;2024-03-02T02:10:02;7.28;;;5.10;;
31128;SDS011;17777;48.770;8.944;2024-03-02T02:12:28;6.97;;;4.75;;
31128;SDS011;17777;48.770;8.944;2024-03-02T02:14:54;5.93;;;4.32;;
31128;SDS011;17777;48.770;8.944;2024-03-02T02:17:20;7.32;;;4.63;;
31128;SDS011;17777;48.770;8.944;2024-03-02T02:19:46;6.15;;;4.85;;
31128;SDS011;17777;48.770;8.944;2024-03-02T02:22:11;6.72;;;4.93;;
31128;SDS011;17777;48.770;8.944;2024-03-02T02:24:40;5.88;;;4.75;;
31128;SDS011;17777;48.770;8.944;2024-03-02T02:27:07;6.22;;;4.78;;
31128;SDS011;17777;48.770;8.944;2024-03-02T02:29:34;5.97;;;4.85;;
31128;SDS011;17777;48.770;8.944;2024-03-02T02:32:01;7.20;;;5.10;;
31128;SDS011;17777;48.770;8.944;2024-03-02T02:34:27;6.97;;;5.30;;
31128;SDS011;17777;48.770;8.944;2024-03-02T02:36:53;6.20;;;5.00;;
31128;SDS011;17777;48.770;8.944;2024-03-02T02:39:20;7.00;;;5.28;;
31128;SDS011;17777;48.770;8.944;2024-03-02T02:41:47;7.32;;;5.78;;
31128;SDS011;17777;48.770;8.944;2024-03-02T02:44:13;6.43;;;5.15;;
31128;SDS011;17777;48.770;8.944;2024-03-02T02:46:40;7.35;;;5.43;;
31128;SDS011;17777;48.770;8.944;2024-03-02T02:49:06;8.05;;;5.63;;
31128;SDS011;17777;48.770;8.944;2024-03-02T02:51:32;6.88;;;5.30;;
31128;SDS011;17777;48.770;8.944;2024-03-02T02:53:58;8.95;;;5.50;;
31128;SDS011;17777;48.770;8.944;2024-03-02T02:56:24;8.95;;;5.97;;
31128;SDS011;17777;48.770;8.944;2024-03-02T02:58:50;6.60;;;5.30;;
31128;SDS011;17777;48.770;8.944;2024-03-02T03:01:16;7.13;;;5.70;;
31128;SDS011;17777;48.770;8.944;2024-03-02T03:03:43;8.00;;;6.03;;
31128;SDS011;17777;48.770;8.944;2024-03-02T03:06:09;7.35;;;5.32;;
31128;SDS011;17777;48.770;8.944;2024-03-02T03:08:36;6.85;;;5.13;;
31128;SDS011;17777;48.770;8.944;2024-03-02T03:11:02;7.75;;;5.57;;
31128;SDS011;17777;48.770;8.944;2024-03-02T03:13:30;7.65;;;5.40;;
31128;SDS011;17777;48.770;8.944;2024-03-02T03:15:57;6.18;;;5.32;;
31128;SDS011;17777;48.770;8.944;2024-03-02T03:18:22;7.80;;;5.85;;
31128;SDS011;17777;48.770;8.944;2024-03-02T03:20:48;7.18;;;5.88;;
31128;SDS011;17777;48.770;8.944;2024-03-02T03:23:15;6.78;;;5.53;;
31128;SDS011;17777;48.770;8.944;2024-03-02T03:25:42;11.07;;;6.45;;
31128;SDS011;17777;48.770;8.944;2024-03-02T03:28:08;6.95;;;5.68;;
31128;SDS011;17777;48.770;8.944;2024-03-02T03:30:38;9.75;;;6.20;;
31128;SDS011;17777;48.770;8.944;2024-03-02T03:33:05;7.35;;;5.75;;
31128;SDS011;17777;48.770;8.944;2024-03-02T03:35:31;8.30;;;6.53;;
31128;SDS011;17777;48.770;8.944;2024-03-02T03:37:58;8.30;;;6.35;;
31128;SDS011;17777;48.770;8.944;2024-03-02T03:40:24;8.05;;;5.95;;
31128;SDS011;17777;48.770;8.944;2024-03-02T03:42:50;8.60;;;6.63;;
31128;SDS011;17777;48.770;8.944;2024-03-02T03:45:15;8.07;;;6.25;;
31128;SDS011;17777;48.770;8.944;2024-03-02T03:47:41;9.20;;;6.68;;
31128;SDS011;17777;48.770;8.944;2024-03-02T03:50:07;8.20;;;6.38;;
31128;SDS011;17777;48.770;8.944;2024-03-02T03:52:33;8.15;;;6.28;;
31128;SDS011;17777;48.770;8.944;2024-03-02T03:54:59;7.95;;;5.85;;
31128;SDS011;17777;48.770;8.944;2024-03-02T03:57:26;7.40;;;5.85;;
31128;SDS011;17777;48.770;8.944;2024-03-02T03:59:52;7.85;;;5.90;;
31128;SDS011;17777;48.770;8.944;2024-03-02T04:02:19;8.32;;;6.13;;
31128;SDS011;17777;48.770;8.944;2024-03-02T04:04:44;7.95;;;6.13;;
31128;SDS011;17777;48.770;8.944;2024-03-02T04:07:11;7.45;;;6.00;;
31128;SDS011;17777;48.770;8.944;2024-03-02T04:09:37;9.88;;;6.30;;
31128;SDS011;17777;48.770;8.944;2024-03-02T04:12:02;9.13;;;6.55;;
31128;SDS011;17777;48.770;8.944;2024-03-02T04:14:28;11.23;;;7.13;;
31128;SDS011;17777;48.770;8.944;2024-03-02T04:16:54;7.57;;;5.93;;
31128;SDS011;17777;48.770;8.944;2024-03-02T04:19:20;9.57;;;6.85;;
31128;SDS011;17777;48.770;8.944;2024-03-02T04:21:46;7.97;;;6.07;;
31128;SDS011;17777;48.770;8.944;2024-03-02T04:24:12;9.80;;;7.35;;
31128;SDS011;17777;48.770;8.944;2024-03-02T04:26:38;9.57;;;7.20;;
31128;SDS011;17777;48.770;8.944;2024-03-02T04:29:03;10.98;;;6.53;;
31128;SDS011;17777;48.770;8.944;2024-03-02T04:31:29;8.57;;;6.47;;
31128;SDS011;17777;48.770;8.944;2024-03-02T04:33:55;9.27;;;7.05;;
31128;SDS011;17777;48.770;8.944;2024-03-02T04:36:21;9.35;;;6.40;;
31128;SDS011;17777;48.770;8.944;2024-03-02T04:38:46;8.65;;;6.38;;
31128;SDS011;17777;48.770;8.944;2024-03-02T04:41:13;9.60;;;6.93;;
31128;SDS011;17777;48.770;8.944;2024-03-02T04:43:38;7.85;;;5.95;;
31128;SDS011;17777;48.770;8.944;2024-03-02T04:46:05;9.85;;;7.10;;
31128;SDS011;17777;48.770;8.944;2024-03-02T04:48:32;9.38;;;6.40;;
31128;SDS011;17777;48.770;8.944;2024-03-02T04:50:59;9.75;;;7.32;;
31128;SDS011;17777;48.770;8.944;2024-03-02T04:53:25;8.10;;;6.25;;
31128;SDS011;17777;48.770;8.944;2024-03-02T04:55:50;7.13;;;5.93;;
31128;SDS011;17777;48.770;8.944;2024-03-02T04:58:19;9.25;;;6.28;;
31128;SDS011;17777;48.770;8.944;2024-03-02T05:00:45;8.88;;;7.03;;
31128;SDS011;17777;48.770;8.944;2024-03-02T05:03:12;9.40;;;7.25;;
31128;SDS011;17777;48.770;8.944;2024-03-02T05:05:38;9.38;;;7.43;;
31128;SDS011;17777;48.770;8.944;2024-03-02T05:08:04;9.00;;;6.93;;
31128;SDS011;17777;48.770;8.944;2024-03-02T05:10:30;8.50;;;6.18;;
31128;SDS011;17777;48.770;8.944;2024-03-02T05:12:56;8.85;;;6.35;;
31128;SDS011;17777;48.770;8.944;2024-03-02T05:15:22;9.57;;;6.85;;
31128;SDS011;17777;48.770;8.944;2024-03-02T05:17:48;8.70;;;6.63;;
31128;SDS011;17777;48.770;8.944;2024-03-02T05:20:14;9.63;;;7.05;;
31128;SDS011;17777;48.770;8.944;2024-03-02T05:22:39;9.52;;;6.50;;
31128;SDS011;17777;48.770;8.944;2024-03-02T05:25:06;8.55;;;6.35;;
31128;SDS011;17777;48.770;8.944;2024-03-02T05:27:32;9.65;;;6.43;;
31128;SDS011;17777;48.770;8.944;2024-03-02T05:29:58;8.20;;;6.50;;
31128;SDS011;17777;48.770;8.944;2024-03-02T05:32:24;8.80;;;6.32;;
31128;SDS011;17777;48.770;8.944;2024-03-02T05:34:50;9.40;;;7.28;;
31128;SDS011;17777;48.770;8.944;2024-03-02T05:37:16;11.80;;;7.65;;
31128;SDS011;17777;48.770;8.944;2024-03-02T05:39:43;11.00;;;7.32;;
31128;SDS011;17777;48.770;8.944;2024-03-02T05:42:09;9.38;;;6.93;;
31128;SDS011;17777;48.770;8.944;2024-03-02T05:44:38;10.27;;;6.97;;
31128;SDS011;17777;48.770;8.944;2024-03-02T05:47:04;8.75;;;6.80;;
31128;SDS011;17777;48.770;8.944;2024-03-02T05:49:33;9.32;;;6.40;;
31128;SDS011;17777;48.770;8.944;2024-03-02T05:51:59;8.35;;;6.25;;
31128;SDS011;17777;48.770;8.944;2024-03-02T05:54:25;9.90;;;6.65;;
31128;SDS011;17777;48.770;8.944;2024-03-02T05:56:51;9.00;;;6.65;;
31128;SDS011;17777;48.770;8.944;2024-03-02T05:59:17;7.20;;;5.72;;
31128;SDS011;17777;48.770;8.944;2024-03-02T06:01:43;7.68;;;6.10;;
31128;SDS011;17777;48.770;8.944;2024-03-02T06:04:13;10.98;;;7.30;;
31128;SDS011;17777;48.770;8.944;2024-03-02T06:06:39;8.95;;;6.72;;
31128;SDS011;17777;48.770;8.944;2024-03-02T06:09:06;8.90;;;6.55;;
31128;SDS011;17777;48.770;8.944;2024-03-02T06:11:38;9.60;;;6.65;;
31128;SDS011;17777;48.770;8.944;2024-03-02T06:14:05;8.15;;;6.32;;
31128;SDS011;17777;48.770;8.944;2024-03-02T06:16:33;9.25;;;6.47;;
31128;SDS011;17777;48.770;8.944;2024-03-02T06:18:59;8.30;;;6.50;;
31128;SDS011;17777;48.770;8.944;2024-03-02T06:21:26;10.60;;;8.10;;
31128;SDS011;17777;48.770;8.944;2024-03-02T06:23:52;10.63;;;7.15;;
31128;SDS011;17777;48.770;8.944;2024-03-02T06:26:19;9.50;;;6.95;;
31128;SDS011;17777;48.770;8.944;2024-03-02T06:28:45;8.25;;;6.28;;
31128;SDS011;17777;48.770;8.944;2024-03-02T06:31:11;8.48;;;6.35;;
31128;SDS011;17777;48.770;8.944;2024-03-02T06:33:37;7.55;;;6.25;;
31128;SDS011;17777;48.770;8.944;2024-03-02T06:36:03;8.10;;;6.40;;
31128;SDS011;17777;48.770;8.944;2024-03-02T06:38:29;8.95;;;6.30;;
31128;SDS011;17777;48.770;8.944;2024-03-02T06:40:58;9.13;;;6.50;;
31128;SDS011;17777;48.770;8.944;2024-03-02T06:43:24;7.78;;;6.22;;
31128;SDS011;17777;48.770;8.944;2024-03-02T06:45:50;9.45;;;6.38;;
31128;SDS011;17777;48.770;8.944;2024-03-02T06:48:17;11.13;;;7.45;;
31128;SDS011;17777;48.770;8.944;2024-03-02T06:50:48;9.15;;;6.47;;
31128;SDS011;17777;48.770;8.944;2024-03-02T06:53:14;9.07;;;6.72;;
31128;SDS011;17777;48.770;8.944;2024-03-02T06:55:44;7.53;;;6.07;;
31128;SDS011;17777;48.770;8.944;2024-03-02T06:58:11;8.48;;;6.60;;
31128;SDS011;17777;48.770;8.944;2024-03-02T07:00:38;8.52;;;6.85;;
31128;SDS011;17777;48.770;8.944;2024-03-02T07:03:04;10.27;;;7.13;;
31128;SDS011;17777;48.770;8.944;2024-03-02T07:05:29;8.57;;;6.53;;
31128;SDS011;17777;48.770;8.944;2024-03-02T07:07:55;9.63;;;7.28;;
31128;SDS011;17777;48.770;8.944;2024-03-02T07:10:22;10.25;;;7.50;;
31128;SDS011;17777;48.770;8.944;2024-03-02T07:12:48;9.32;;;7.32;;
31128;SDS011;17777;48.770;8.944;2024-03-02T07:15:13;10.00;;;7.20;;
31128;SDS011;17777;48.770;8.944;2024-03-02T07:17:58;9.07;;;7.05;;
31128;SDS011;17777;48.770;8.944;2024-03-02T07:20:23;10.55;;;7.32;;
31128;SDS011;17777;48.770;8.944;2024-03-02T07:22:49;8.07;;;6.43;;
31128;SDS011;17777;48.770;8.944;2024-03-02T07:25:15;8.52;;;6.65;;
31128;SDS011;17777;48.770;8.944;2024-03-02T07:27:41;11.02;;;7.13;;
31128;SDS011;17777;48.770;8.944;2024-03-02T07:30:08;9.20;;;6.72;;
31128;SDS011;17777;48.770;8.944;2024-03-02T07:32:36;9.93;;;6.47;;
31128;SDS011;17777;48.770;8.944;2024-03-02T07:35:02;9.90;;;7.57;;
31128;SDS011;17777;48.770;8.944;2024-03-02T07:37:28;11.32;;;8.13;;
31128;SDS011;17777;48.770;8.944;2024-03-02T07:39:54;10.50;;;7.25;;
31128;SDS011;17777;48.770;8.944;2024-03-02T07:42:20;10.27;;;7.22;;
31128;SDS011;17777;48.770;8.944;2024-03-02T07:44:46;8.98;;;6.80;;
31128;SDS011;17777;48.770;8.944;2024-03-02T07:47:12;8.80;;;6.72;;
31128;SDS011;17777;48.770;8.944;2024-03-02T07:49:38;8.73;;;6.72;;
31128;SDS011;17777;48.770;8.944;2024-03-02T07:52:03;9.43;;;6.85;;
31128;SDS011;17777;48.770;8.944;2024-03-02T07:54:29;12.20;;;7.15;;
31128;SDS011;17777;48.770;8.944;2024-03-02T07:56:55;9.23;;;7.03;;
31128;SDS011;17777;48.770;8.944;2024-03-02T07:59:21;8.55;;;6.80;;
31128;SDS011;17777;48.770;8.944;2024-03-02T08:01:47;8.75;;;6.70;;
31128;SDS011;17777;48.770;8.944;2024-03-02T08:04:15;7.97;;;6.50;;
31128;SDS011;17777;48.770;8.944;2024-03-02T08:06:41;8.40;;;6.03;;
31128;SDS011;17777;48.770;8.944;2024-03-02T08:09:07;7.82;;;5.90;;
31128;SDS011;17777;48.770;8.944;2024-03-02T08:11:35;7.88;;;6.00;;
31128;SDS011;17777;48.770;8.944;2024-03-02T08:14:02;6.85;;;5.72;;
31128;SDS011;17777;48.770;8.944;2024-03-02T08:16:28;8.50;;;6.40;;
31128;SDS011;17777;48.770;8.944;2024-03-02T08:18:54;8.55;;;6.65;;
31128;SDS011;17777;48.770;8.944;2024-03-02T08:21:23;7.72;;;6.25;;
31128;SDS011;17777;48.770;8.944;2024-03-02T08:23:49;9.32;;;7.15;;
31128;SDS011;17777;48.770;8.944;2024-03-02T08:26:15;9.05;;;6.82;;
31128;SDS011;17777;48.770;8.944;2024-03-02T08:28:41;7.97;;;6.13;;
31128;SDS011;17777;48.770;8.944;2024-03-02T08:31:07;10.10;;;7.18;;
31128;SDS011;17777;48.770;8.944;2024-03-02T08:33:33;7.68;;;6.57;;
31128;SDS011;17777;48.770;8.944;2024-03-02T08:36:00;7.78;;;6.22;;
31128;SDS011;17777;48.770;8.944;2024-03-02T08:38:26;8.05;;;6.40;;
31128;SDS011;17777;48.770;8.944;2024-03-02T08:40:52;8.55;;;6.35;;
31128;SDS011;17777;48.770;8.944;2024-03-02T08:43:18;8.10;;;6.28;;
31128;SDS011;17777;48.770;8.944;2024-03-02T08:45:45;7.15;;;5.97;;
31128;SDS011;17777;48.770;8.944;2024-03-02T08:48:12;6.68;;;5.28;;
31128;SDS011;17777;48.770;8.944;2024-03-02T08:50:38;7.70;;;5.00;;
31128;SDS011;17777;48.770;8.944;2024-03-02T08:53:04;6.78;;;5.53;;
31128;SDS011;17777;48.770;8.944;2024-03-02T08:55:30;7.00;;;5.65;;
31128;SDS011;17777;48.770;8.944;2024-03-02T08:57:56;5.72;;;4.57;;
31128;SDS011;17777;48.770;8.944;2024-03-02T09:00:22;5.53;;;4.32;;
31128;SDS011;17777;48.770;8.944;2024-03-02T09:02:48;5.78;;;4.65;;
31128;SDS011;17777;48.770;8.944;2024-03-02T09:05:15;5.25;;;4.28;;
31128;SDS011;17777;48.770;8.944;2024-03-02T09:07:41;5.35;;;4.30;;
31128;SDS011;17777;48.770;8.944;2024-03-02T09:10:07;5.88;;;4.30;;
31128;SDS011;17777;48.770;8.944;2024-03-02T09:12:34;5.28;;;4.15;;
31128;SDS011;17777;48.770;8.944;2024-03-02T09:15:03;5.53;;;4.18;;
31128;SDS011;17777;48.770;8.944;2024-03-02T09:17:31;4.40;;;3.53;;
31128;SDS011;17777;48.770;8.944;2024-03-02T09:19:57;4.55;;;3.83;;
31128;SDS011;17777;48.770;8.944;2024-03-02T09:22:22;5.47;;;4.07;;
31128;SDS011;17777;48.770;8.944;2024-03-02T09:24:48;4.65;;;3.70;;
31128;SDS011;17777;48.770;8.944;2024-03-02T09:27:14;4.82;;;4.32;;
31128;SDS011;17777;48.770;8.944;2024-03-02T09:29:40;4.57;;;3.75;;
31128;SDS011;17777;48.770;8.944;2024-03-02T09:32:07;4.85;;;3.97;;
31128;SDS011;17777;48.770;8.944;2024-03-02T09:34:37;5.30;;;4.10;;
31128;SDS011;17777;48.770;8.944;2024-03-02T09:37:02;4.85;;;3.92;;
31128;SDS011;17777;48.770;8.944;2024-03-02T09:39:29;5.50;;;4.00;;
31128;SDS011;17777;48.770;8.944;2024-03-02T09:41:55;5.47;;;3.78;;
31128;SDS011;17777;48.770;8.944;2024-03-02T09:44:23;4.20;;;3.55;;
31128;SDS011;17777;48.770;8.944;2024-03-02T09:46:50;9.98;;;6.82;;
31128;SDS011;17777;48.770;8.944;2024-03-02T09:49:17;10.73;;;7.50;;
31128;SDS011;17777;48.770;8.944;2024-03-02T09:51:47;5.80;;;4.80;;
31128;SDS011;17777;48.770;8.944;2024-03-02T09:54:15;5.60;;;4.30;;
31128;SDS011;17777;48.770;8.944;2024-03-02T09:56:41;4.55;;;3.53;;
31128;SDS011;17777;48.770;8.944;2024-03-02T09:59:07;3.67;;;3.38;;
31128;SDS011;17777;48.770;8.944;2024-03-02T10:01:33;3.80;;;3.40;;
31128;SDS011;17777;48.770;8.944;2024-03-02T10:03:59;3.92;;;2.83;;
31128;SDS011;17777;48.770;8.944;2024-03-02T10:06:26;5.47;;;3.65;;
31128;SDS011;17777;48.770;8.944;2024-03-02T10:08:53;3.50;;;3.13;;
31128;SDS011;17777;48.770;8.944;2024-03-02T10:11:27;3.28;;;2.97;;
31128;SDS011;17777;48.770;8.944;2024-03-02T10:14:12;3.38;;;2.88;;
31128;SDS011;17777;48.770;8.944;2024-03-02T10:16:43;4.43;;;3.05;;
31128;SDS011;17777;48.770;8.944;2024-03-02T10:19:14;4.03;;;2.80;;
31128;SDS011;17777;48.770;8.944;2024-03-02T10:21:48;3.60;;;3.00;;
31128;SDS011;17777;48.770;8.944;2024-03-02T10:24:17;3.42;;;2.85;;
31128;SDS011;17777;48.770;8.944;2024-03-02T10:26:44;3.47;;;2.75;;
31128;SDS011;17777;48.770;8.944;2024-03-02T10:29:10;4.55;;;2.75;;
31128;SDS011;17777;48.770;8.944;2024-03-02T10:31:37;2.08;;;1.88;;
31128;SDS011;17777;48.770;8.944;2024-03-02T10:34:05;2.83;;;2.13;;
31128;SDS011;17777;48.770;8.944;2024-03-02T10:36:33;2.45;;;2.03;;
31128;SDS011;17777;48.770;8.944;2024-03-02T10:39:02;3.05;;;2.55;;
31128;SDS011;17777;48.770;8.944;2024-03-02T10:41:34;2.33;;;2.13;;
31128;SDS011;17777;48.770;8.944;2024-03-02T10:44:03;1.57;;;1.47;;
31128;SDS011;17777;48.770;8.944;2024-03-02T10:46:31;1.63;;;1.52;;
31128;SDS011;17777;48.770;8.944;2024-03-02T10:49:00;2.15;;;1.67;;
31128;SDS011;17777;48.770;8.944;2024-03-02T10:51:29;1.75;;;1.60;;
31128;SDS011;17777;48.770;8.944;2024-03-02T10:54:00;1.80;;;1.40;;
31128;SDS011;17777;48.770;8.944;2024-03-02T10:56:29;4.30;;;2.70;;
31128;SDS011;17777;48.770;8.944;2024-03-02T11:01:59;2.47;;;2.08;;
31128;SDS011;17777;48.770;8.944;2024-03-02T11:04:27;1.92;;;1.77;;
31128;SDS011;17777;48.770;8.944;2024-03-02T11:06:59;2.13;;;1.40;;
31128;SDS011;17777;48.770;8.944;2024-03-02T11:09:26;1.45;;;1.00;;
31128;SDS011;17777;48.770;8.944;2024-03-02T11:12:19;0.88;;;0.82;;
31128;SDS011;17777;48.770;8.944;2024-03-02T11:14:48;1.33;;;1.00;;
31128;SDS011;17777;48.770;8.944;2024-03-02T11:17:19;0.55;;;0.50;;
31128;SDS011;17777;48.770;8.944;2024-03-02T11:19:46;1.02;;;0.70;;
31128;SDS011;17777;48.770;8.944;2024-03-02T11:22:12;1.63;;;1.20;;
31128;SDS011;17777;48.770;8.944;2024-03-02T11:24:47;0.73;;;0.60;;
31128;SDS011;17777;48.770;8.944;2024-03-02T11:27:14;0.60;;;0.60;;
31128;SDS011;17777;48.770;8.944;2024-03-02T11:33:01;0.85;;;0.50;;
31128;SDS011;17777;48.770;8.944;2024-03-02T11:35:38;0.40;;;0.40;;
31128;SDS011;17777;48.770;8.944;2024-03-02T11:38:14;0.60;;;0.40;;
31128;SDS011;17777;48.770;8.944;2024-03-02T11:40:39;0.40;;;0.40;;
31128;SDS011;17777;48.770;8.944;2024-03-02T11:43:06;0.40;;;0.40;;
31128;SDS011;17777;48.770;8.944;2024-03-02T11:45:36;0.30;;;0.30;;
31128;SDS011;17777;48.770;8.944;2024-03-02T11:48:05;0.57;;;0.40;;
31128;SDS011;17777;48.770;8.944;2024-03-02T11:53:11;0.47;;;0.40;;
31128;SDS011;17777;48.770;8.944;2024-03-02T11:55:39;0.65;;;0.50;;
31128;SDS011;17777;48.770;8.944;2024-03-02T11:58:14;0.55;;;0.52;;
31128;SDS011;17777;48.770;8.944;2024-03-02T12:00:53;0.60;;;0.60;;
31128;SDS011;17777;48.770;8.944;2024-03-02T12:03:21;1.33;;;0.50;;
31128;SDS011;17777;48.770;8.944;2024-03-02T12:05:49;0.60;;;0.55;;
31128;SDS011;17777;48.770;8.944;2024-03-02T12:08:16;0.40;;;0.40;;
31128;SDS011;17777;48.770;8.944;2024-03-02T12:10:42;0.50;;;0.50;;
31128;SDS011;17777;48.770;8.944;2024-03-02T12:13:09;0.40;;;0.40;;
31128;SDS011;17777;48.770;8.944;2024-03-02T12:15:36;0.52;;;0.40;;
31128;SDS011;17777;48.770;8.944;2024-03-02T12:18:04;0.63;;;0.63;;
31128;SDS011;17777;48.770;8.944;2024-03-02T12:20:31;0.30;;;0.30;;
31128;SDS011;17777;48.770;8.944;2024-03-02T12:22:59;1.80;;;0.40;;
31128;SDS011;17777;48.770;8.944;2024-03-02T12:25:30;0.65;;;0.38;;
31128;SDS011;17777;48.770;8.944;2024-03-02T12:27:59;0.30;;;0.30;;
31128;SDS011;17777;48.770;8.944;2024-03-02T12:30:26;0.30;;;0.30;;
31128;SDS011;17777;48.770;8.944;2024-03-02T12:32:57;0.30;;;0.30;;
31128;SDS011;17777;48.770;8.944;2024-03-02T12:35:24;0.30;;;0.30;;
31128;SDS011;17777;48.770;8.944;2024-03-02T12:37:51;0.32;;;0.25;;
31128;SDS011;17777;48.770;8.944;2024-03-02T12:40:19;0.22;;;0.10;;
31128;SDS011;17777;48.770;8.944;2024-03-02T12:42:47;0.30;;;0.30;;
31128;SDS011;17777;48.770;8.944;2024-03-02T12:45:14;0.55;;;0.55;;
31128;SDS011;17777;48.770;8.944;2024-03-02T12:47:41;1.95;;;0.30;;
31128;SDS011;17777;48.770;8.944;2024-03-02T12:50:08;0.52;;;0.30;;
31128;SDS011;17777;48.770;8.944;2024-03-02T12:52:35;0.30;;;0.30;;
31128;SDS011;17777;48.770;8.944;2024-03-02T12:55:01;0.30;;;0.30;;
31128;SDS011;17777;48.770;8.944;2024-03-02T12:57:30;0.70;;;0.25;;
31128;SDS011;17777;48.770;8.944;2024-03-02T13:00:06;3.75;;;0.55;;
31128;SDS011;17777;48.770;8.944;2024-03-02T13:02:34;0.32;;;0.32;;
31128;SDS011;17777;48.770;8.944;2024-03-02T13:05:02;0.43;;;0.30;;
31128;SDS011;17777;48.770;8.944;2024-03-02T13:07:29;0.93;;;0.63;;
31128;SDS011;17777;48.770;8.944;2024-03-02T13:09:55;0.40;;;0.40;;
31128;SDS011;17777;48.770;8.944;2024-03-02T13:12:24;0.38;;;0.32;;
31128;SDS011;17777;48.770;8.944;2024-03-02T13:14:53;1.27;;;0.55;;
31128;SDS011;17777;48.770;8.944;2024-03-02T13:17:20;1.30;;;0.63;;
31128;SDS011;17777;48.770;8.944;2024-03-02T13:19:52;1.55;;;1.33;;
31128;SDS011;17777;48.770;8.944;2024-03-02T13:22:20;1.20;;;0.80;;
31128;SDS011;17777;48.770;8.944;2024-03-02T13:24:47;0.60;;;0.60;;
31128;SDS011;17777;48.770;8.944;2024-03-02T13:27:16;1.67;;;0.95;;
31128;SDS011;17777;48.770;8.944;2024-03-02T13:29:48;0.60;;;0.60;;
31128;SDS011;17777;48.770;8.944;2024-03-02T13:32:14;0.32;;;0.32;;
31128;SDS011;17777;48.770;8.944;2024-03-02T13:34:44;0.40;;;0.38;;
31128;SDS011;17777;48.770;8.944;2024-03-02T13:37:10;0.50;;;0.40;;
31128;SDS011;17777;48.770;8.944;2024-03-02T13:39:36;0.68;;;0.60;;
31128;SDS011;17777;48.770;8.944;2024-03-02T13:42:09;0.43;;;0.40;;
31128;SDS011;17777;48.770;8.944;2024-03-02T13:44:38;0.45;;;0.45;;
31128;SDS011;17777;48.770;8.944;2024-03-02T13:47:04;0.30;;;0.30;;
31128;SDS011;17777;48.770;8.944;2024-03-02T13:49:31;0.50;;;0.50;;
31128;SDS011;17777;48.770;8.944;2024-03-02T13:52:04;0.85;;;0.70;;
31128;SDS011;17777;48.770;8.944;2024-03-02T13:54:41;0.40;;;0.40;;
31128;SDS011;17777;48.770;8.944;2024-03-02T13:57:09;0.40;;;0.40;;
31128;SDS011;17777;48.770;8.944;2024-03-02T13:59:36;0.50;;;0.50;;
31128;SDS011;17777;48.770;8.944;2024-03-02T14:02:04;1.45;;;0.50;;
31128;SDS011;17777;48.770;8.944;2024-03-02T14:04:34;0.43;;;0.43;;
31128;SDS011;17777;48.770;8.944;2024-03-02T14:07:01;2.47;;;0.40;;
31128;SDS011;17777;48.770;8.944;2024-03-02T14:09:27;0.40;;;0.40;;
31128;SDS011;17777;48.770;8.944;2024-03-02T14:11:54;0.52;;;0.40;;
31128;SDS011;17777;48.770;8.944;2024-03-02T14:14:21;0.60;;;0.50;;
31128;SDS011;17777;48.770;8.944;2024-03-02T14:16:48;0.63;;;0.40;;
31128;SDS011;17777;48.770;8.944;2024-03-02T14:19:14;0.52;;;0.40;;
31128;SDS011;17777;48.770;8.944;2024-03-02T14:21:40;0.50;;;0.50;;
31128;SDS011;17777;48.770;8.944;2024-03-02T14:24:06;1.33;;;0.50;;
31128;SDS011;17777;48.770;8.944;2024-03-02T14:26:32;0.50;;;0.50;;
31128;SDS011;17777;48.770;8.944;2024-03-02T14:28:59;0.43;;;0.43;;
31128;SDS011;17777;48.770;8.944;2024-03-02T14:31:27;0.55;;;0.50;;
31128;SDS011;17777;48.770;8.944;2024-03-02T14:33:53;0.30;;;0.30;;
31128;SDS011;17777;48.770;8.944;2024-03-02T14:36:19;0.40;;;0.40;;
31128;SDS011;17777;48.770;8.944;2024-03-02T14:38:45;0.30;;;0.30;;
31128;SDS011;17777;48.770;8.944;2024-03-02T14:41:11;0.32;;;0.32;;
31128;SDS011;17777;48.770;8.944;2024-03-02T14:43:38;0.30;;;0.30;;
31128;SDS011;17777;48.770;8.944;2024-03-02T14:46:04;3.05;;;0.45;;
31128;SDS011;17777;48.770;8.944;2024-03-02T14:48:34;0.30;;;0.30;;
31128;SDS011;17777;48.770;8.944;2024-03-02T14:51:04;0.47;;;0.47;;
31128;SDS011;17777;48.770;8.944;2024-03-02T14:53:30;0.50;;;0.25;;
31128;SDS011;17777;48.770;8.944;2024-03-02T14:55:55;0.57;;;0.40;;
31128;SDS011;17777;48.770;8.944;2024-03-02T14:58:21;0.30;;;0.30;;
31128;SDS011;17777;48.770;8.944;2024-03-02T15:00:47;1.15;;;0.73;;
31128;SDS011;17777;48.770;8.944;2024-03-02T15:03:13;0.50;;;0.50;;
31128;SDS011;17777;48.770;8.944;2024-03-02T15:05:39;0.50;;;0.50;;
31128;SDS011;17777;48.770;8.944;2024-03-02T15:08:05;0.40;;;0.40;;